Time;durP1;ratioP1;P1;durP2;ratioP2;P2;SDS_P1;SDS_P2;PMS_P1;PMS_P2;Temp;Humidity;BMP_temperature;BMP_pressure;BME280_temperature;BME280_humidity;BME280_pressure;Samples;Min_cycle;Max_cycle;Signal;HPM_P1;HPM_P2
2023/12/19 00:01:08;;;;;;;146.07;98.65;;;3.40;99.90;;;;;;5054442;28;20024;-67
2023/12/19 00:03:34;;;;;;;161.70;105.45;;;3.50;99.90;;;;;;5053383;28;20531;-68
2023/12/19 00:06:00;;;;;;;117.88;83.13;;;3.40;99.90;;;;;;5054365;28;20036;-63
2023/12/19 00:08:26;;;;;;;119.53;80.05;;;3.30;99.90;;;;;;5054310;28;20486;-66
2023/12/19 00:10:52;;;;;;;112.55;74.65;;;3.40;99.90;;;;;;5053170;28;20033;-61
2023/12/19 00:13:17;;;;;;;117.00;78.85;;;3.40;99.90;;;;;;5054007;28;20020;-65
2023/12/19 00:15:43;;;;;;;111.82;76.63;;;3.40;99.90;;;;;;5054589;28;20463;-60
2023/12/19 00:18:09;;;;;;;116.95;78.53;;;3.40;99.90;;;;;;5053008;28;20033;-70
2023/12/19 00:20:35;;;;;;;96.57;65.97;;;3.40;99.90;;;;;;5054324;28;20029;-62
2023/12/19 00:23:00;;;;;;;103.03;70.55;;;3.20;99.90;;;;;;5054270;28;20049;-64
2023/12/19 00:25:26;;;;;;;123.32;81.35;;;3.20;99.90;;;;;;5052994;28;20108;-63
2023/12/19 00:27:52;;;;;;;95.80;66.45;;;3.30;99.90;;;;;;5054068;28;20013;-68
2023/12/19 00:30:18;;;;;;;102.75;70.38;;;3.30;99.90;;;;;;5053199;28;20471;-63
2023/12/19 00:32:43;;;;;;;126.63;80.72;;;3.40;99.90;;;;;;5053754;28;20074;-67
2023/12/19 00:35:09;;;;;;;114.07;75.70;;;3.40;99.90;;;;;;5053786;28;20070;-68
2023/12/19 00:37:35;;;;;;;122.50;80.07;;;3.40;99.90;;;;;;5052987;28;20021;-62
2023/12/19 00:40:01;;;;;;;105.38;70.15;;;3.40;99.90;;;;;;5053560;28;20025;-67
2023/12/19 00:42:26;;;;;;;94.65;65.53;;;3.40;99.90;;;;;;5053603;28;20021;-66
2023/12/19 00:44:52;;;;;;;133.48;89.60;;;3.40;99.90;;;;;;5053067;28;20056;-66
2023/12/19 00:47:18;;;;;;;112.70;76.80;;;3.40;99.90;;;;;;5053427;28;20439;-66
2023/12/19 00:49:43;;;;;;;121.40;78.55;;;3.40;99.90;;;;;;5053576;28;20403;-68
2023/12/19 00:52:09;;;;;;;167.07;106.88;;;3.30;99.90;;;;;;5052364;28;20054;-68
2023/12/19 00:54:35;;;;;;;161.20;106.95;;;3.20;99.90;;;;;;5053533;28;20533;-66
2023/12/19 00:57:00;;;;;;;138.57;91.30;;;3.10;99.90;;;;;;5051371;28;20033;-63
2023/12/19 00:59:26;;;;;;;134.50;89.43;;;3.10;99.90;;;;;;5053019;28;20033;-67
2023/12/19 01:01:52;;;;;;;173.93;115.47;;;3.20;99.90;;;;;;5053540;28;20025;-64
2023/12/19 01:04:19;;;;;;;156.65;102.00;;;3.20;99.90;;;;;;5052392;28;20019;-66
2023/12/19 01:06:45;;;;;;;150.38;95.40;;;3.20;99.90;;;;;;5053272;28;20379;-66
2023/12/19 01:09:11;;;;;;;151.88;97.70;;;3.10;99.90;;;;;;5053308;28;20025;-65
2023/12/19 01:11:36;;;;;;;191.15;127.70;;;3.20;99.90;;;;;;5052474;28;20036;-58
2023/12/19 01:14:03;;;;;;;209.15;140.02;;;3.10;99.90;;;;;;5053178;28;20021;-66
2023/12/19 01:16:28;;;;;;;163.02;113.13;;;3.10;99.90;;;;;;5053199;28;20394;-66
2023/12/19 01:18:55;;;;;;;157.90;103.30;;;3.00;99.90;;;;;;5052144;28;20029;-64
2023/12/19 01:21:20;;;;;;;135.05;96.18;;;3.00;99.90;;;;;;5052980;28;20467;-72
2023/12/19 01:23:46;;;;;;;153.23;103.03;;;3.00;99.90;;;;;;5052990;28;20017;-64
2023/12/19 01:26:12;;;;;;;131.48;89.78;;;3.00;99.90;;;;;;5051869;28;20029;-65
2023/12/19 01:28:39;;;;;;;111.03;74.78;;;2.90;99.90;;;;;;5053238;28;20017;-62
2023/12/19 01:31:05;;;;;;;94.07;65.78;;;2.80;99.90;;;;;;5052567;28;20400;-63
2023/12/19 01:33:30;;;;;;;88.47;59.05;;;2.90;99.90;;;;;;5051896;28;20027;-63
2023/12/19 01:35:56;;;;;;;79.20;55.80;;;2.90;99.90;;;;;;5053242;28;20032;-66
2023/12/19 01:38:22;;;;;;;74.10;51.38;;;2.90;99.90;;;;;;5052256;28;20468;-65
2023/12/19 01:40:47;;;;;;;72.90;49.38;;;2.80;99.90;;;;;;5052953;28;20391;-63
2023/12/19 01:43:20;;;;;;;64.57;46.33;;;2.90;99.90;;;;;;5053026;28;20100;-65
2023/12/19 01:45:47;;;;;;;60.53;42.53;;;2.90;99.90;;;;;;5052260;28;20364;-62
2023/12/19 01:48:15;;;;;;;53.42;37.92;;;3.00;99.90;;;;;;5052718;28;20258;-62
2023/12/19 01:50:41;;;;;;;50.13;34.80;;;2.90;99.90;;;;;;5052876;28;20017;-64
2023/12/19 01:53:08;;;;;;;47.45;35.65;;;2.90;99.90;;;;;;5051840;28;20032;-62
2023/12/19 01:55:34;;;;;;;50.88;36.22;;;2.90;99.90;;;;;;5052963;28;20025;-63
2023/12/19 01:58:00;;;;;;;48.25;32.72;;;2.90;99.90;;;;;;5052108;28;20563;-65
2023/12/19 02:00:26;;;;;;;60.88;42.92;;;3.00;99.90;;;;;;5052547;28;20403;-65
2023/12/19 02:02:52;;;;;;;54.03;38.08;;;3.00;99.90;;;;;;5052803;28;20017;-67
2023/12/19 02:05:19;;;;;;;43.08;30.50;;;2.90;99.90;;;;;;5052042;28;20013;-69
2023/12/19 02:07:45;;;;;;;40.58;30.95;;;2.80;99.90;;;;;;5052644;28;20096;-68
2023/12/19 02:10:11;;;;;;;53.58;37.67;;;2.80;99.90;;;;;;5052677;28;20100;-67
2023/12/19 02:12:38;;;;;;;53.13;36.92;;;2.80;99.90;;;;;;5051923;28;20082;-66
2023/12/19 02:15:05;;;;;;;38.17;28.05;;;2.70;99.90;;;;;;5052647;28;20067;-66
2023/12/19 02:17:31;;;;;;;42.30;29.90;;;2.60;99.90;;;;;;5052797;28;20025;-67
2023/12/19 02:19:56;;;;;;;58.30;40.80;;;2.70;99.90;;;;;;5051876;28;20044;-68
2023/12/19 02:22:22;;;;;;;45.78;32.85;;;2.70;99.90;;;;;;5052398;28;20074;-69
2023/12/19 02:24:48;;;;;;;46.10;33.08;;;2.70;99.90;;;;;;5053045;28;20463;-67
2023/12/19 02:27:17;;;;;;;46.00;32.03;;;2.70;99.90;;;;;;5051449;28;20021;-63
2023/12/19 02:29:42;;;;;;;42.88;31.45;;;2.70;99.90;;;;;;5052643;28;20491;-68
2023/12/19 02:32:08;;;;;;;52.00;36.58;;;2.70;99.90;;;;;;5051927;28;20104;-65
2023/12/19 02:34:34;;;;;;;41.15;30.38;;;2.80;99.90;;;;;;5052975;28;20379;-65
2023/12/19 02:36:59;;;;;;;35.60;27.15;;;2.80;99.90;;;;;;5056158;28;20035;-66
2023/12/19 02:39:25;;;;;;;47.15;32.05;;;2.80;99.90;;;;;;5055324;28;20025;-63
2023/12/19 02:41:51;;;;;;;39.70;30.27;;;2.70;99.90;;;;;;5055824;28;20448;-64
2023/12/19 02:44:16;;;;;;;37.67;28.98;;;2.60;99.90;;;;;;5056032;28;20025;-62
2023/12/19 02:46:42;;;;;;;38.00;26.23;;;2.60;99.90;;;;;;5054974;28;20433;-67
2023/12/19 02:49:08;;;;;;;39.92;28.77;;;2.60;99.90;;;;;;5055607;28;20103;-61
2023/12/19 02:51:33;;;;;;;39.50;28.55;;;2.60;99.90;;;;;;5055845;28;20040;-64
2023/12/19 02:53:59;;;;;;;31.25;23.50;;;2.70;99.90;;;;;;5054797;28;20107;-64
2023/12/19 02:56:25;;;;;;;30.92;24.17;;;2.70;99.90;;;;;;5055287;28;20108;-63
2023/12/19 02:58:51;;;;;;;40.20;29.23;;;2.70;99.90;;;;;;5055720;28;20033;-67
2023/12/19 03:01:17;;;;;;;34.10;25.08;;;2.70;99.90;;;;;;5054611;28;20032;-67
2023/12/19 03:03:43;;;;;;;30.98;22.67;;;2.70;99.90;;;;;;5055841;28;20017;-67
2023/12/19 03:06:12;;;;;;;29.27;21.55;;;2.70;99.90;;;;;;5055096;28;20356;-66
2023/12/19 03:08:38;;;;;;;29.08;21.55;;;2.70;99.90;;;;;;5055104;28;20040;-67
2023/12/19 03:11:03;;;;;;;26.30;19.63;;;2.70;99.90;;;;;;5055494;28;20025;-65
2023/12/19 03:13:29;;;;;;;30.77;23.00;;;2.70;99.90;;;;;;5054628;28;20040;-64
2023/12/19 03:15:55;;;;;;;65.60;43.58;;;2.60;99.90;;;;;;5055204;28;20021;-63
2023/12/19 03:18:24;;;;;;;40.55;30.02;;;2.60;99.90;;;;;;5055229;28;20029;-70
2023/12/19 03:20:53;;;;;;;34.17;25.85;;;2.60;99.90;;;;;;5054563;28;20467;-66
2023/12/19 03:23:20;;;;;;;41.17;30.42;;;2.50;99.90;;;;;;5054998;28;20040;-65
2023/12/19 03:25:45;;;;;;;52.13;36.03;;;2.50;99.90;;;;;;5055210;28;20017;-61
2023/12/19 03:28:11;;;;;;;34.10;26.05;;;2.50;99.90;;;;;;5054068;28;20107;-70
2023/12/19 03:30:37;;;;;;;36.55;27.52;;;2.40;99.90;;;;;;5054953;28;20475;-65
2023/12/19 03:33:03;;;;;;;47.92;33.08;;;2.40;99.90;;;;;;5054688;28;20025;-64
2023/12/19 03:35:28;;;;;;;47.67;32.88;;;2.40;99.90;;;;;;5054787;28;20013;-67
2023/12/19 03:37:54;;;;;;;62.80;41.42;;;2.40;99.90;;;;;;5054966;28;20025;-70
2023/12/19 03:40:20;;;;;;;50.28;35.90;;;2.40;99.90;;;;;;5054152;28;20100;-62
2023/12/19 03:42:46;;;;;;;38.92;29.70;;;2.40;99.90;;;;;;5054587;28;20021;-63
2023/12/19 03:45:11;;;;;;;41.58;29.63;;;2.30;99.90;;;;;;5054449;28;20436;-62
2023/12/19 03:47:38;;;;;;;49.60;35.53;;;2.30;99.90;;;;;;5053821;28;20021;-65
2023/12/19 03:50:05;;;;;;;51.22;37.40;;;2.30;99.90;;;;;;5054489;28;20475;-66
2023/12/19 03:52:31;;;;;;;65.40;45.90;;;2.30;99.90;;;;;;5054661;28;20017;-70
2023/12/19 03:54:57;;;;;;;52.65;40.25;;;2.30;99.90;;;;;;5053904;28;20078;-67
2023/12/19 03:57:22;;;;;;;58.60;42.92;;;2.30;99.90;;;;;;5054181;28;20045;-68
2023/12/19 03:59:48;;;;;;;88.53;56.97;;;2.30;99.90;;;;;;5054583;28;20029;-66
2023/12/19 04:02:14;;;;;;;106.93;71.75;;;2.30;99.90;;;;;;5053572;28;20055;-62
2023/12/19 04:04:39;;;;;;;69.28;50.65;;;2.30;99.90;;;;;;5054342;28;20025;-63
2023/12/19 04:07:05;;;;;;;66.22;50.42;;;2.30;99.90;;;;;;5054437;28;20079;-64
2023/12/19 04:09:31;;;;;;;64.20;47.80;;;2.30;99.90;;;;;;5053182;28;20032;-64
2023/12/19 04:12:01;;;;;;;74.28;52.50;;;2.30;99.90;;;;;;5054200;28;20372;-64
2023/12/19 04:14:31;;;;;;;53.85;38.38;;;2.30;99.90;;;;;;5053872;28;20033;-67
2023/12/19 04:16:57;;;;;;;53.00;39.17;;;2.30;99.90;;;;;;5053946;28;20087;-67
2023/12/19 04:19:22;;;;;;;55.10;39.22;;;2.30;99.90;;;;;;5054180;28;20482;-65
2023/12/19 04:21:49;;;;;;;46.78;34.42;;;2.30;99.90;;;;;;5053340;28;20021;-60
2023/12/19 04:24:15;;;;;;;56.20;40.13;;;2.30;99.90;;;;;;5054073;28;20108;-63
2023/12/19 04:26:46;;;;;;;61.97;45.22;;;2.30;99.90;;;;;;5053939;28;20108;-63
2023/12/19 04:29:12;;;;;;;44.78;34.00;;;2.20;99.90;;;;;;5053139;28;20029;-68
2023/12/19 04:31:39;;;;;;;35.80;28.38;;;2.10;99.90;;;;;;5053718;28;20028;-65
2023/12/19 04:34:05;;;;;;;35.67;26.95;;;2.00;99.90;;;;;;5054041;28;20541;-63
2023/12/19 04:36:31;;;;;;;34.95;26.20;;;2.00;99.90;;;;;;5052627;28;20064;-68
2023/12/19 04:38:57;;;;;;;35.25;26.58;;;2.10;99.90;;;;;;5053942;28;20032;-70
2023/12/19 04:41:23;;;;;;;33.33;23.80;;;2.10;99.90;;;;;;5053124;28;20021;-64
2023/12/19 04:43:49;;;;;;;29.35;22.65;;;2.10;99.90;;;;;;5053403;28;20032;-70
2023/12/19 04:46:15;;;;;;;34.03;25.52;;;2.10;99.90;;;;;;5053623;28;20029;-67
2023/12/19 04:48:42;;;;;;;44.00;30.35;;;2.10;99.90;;;;;;5052867;28;20040;-63
2023/12/19 04:51:19;;;;;;;59.90;41.40;;;2.10;99.90;;;;;;5053404;28;20391;-64
2023/12/19 04:53:45;;;;;;;48.80;36.83;;;2.10;99.90;;;;;;5053588;28;20071;-64
2023/12/19 04:56:11;;;;;;;42.38;31.50;;;2.00;99.90;;;;;;5052570;28;20036;-66
2023/12/19 04:58:38;;;;;;;68.95;45.38;;;2.00;99.90;;;;;;5052851;28;20036;-62
2023/12/19 05:01:04;;;;;;;80.85;59.45;;;2.00;99.90;;;;;;5052269;28;20025;-63
2023/12/19 05:03:29;;;;;;;60.95;45.55;;;1.90;99.90;;;;;;5052233;28;20025;-65
2023/12/19 05:05:55;;;;;;;76.93;53.53;;;1.90;99.90;;;;;;5053427;28;20059;-61
2023/12/19 05:08:21;;;;;;;55.30;41.92;;;1.90;99.90;;;;;;5053470;28;20021;-68
2023/12/19 05:10:47;;;;;;;68.22;47.20;;;2.00;99.90;;;;;;5052165;28;20025;-64
2023/12/19 05:13:12;;;;;;;63.05;48.92;;;2.00;99.90;;;;;;5053280;28;20028;-60
2023/12/19 05:15:38;;;;;;;49.22;37.60;;;2.00;99.90;;;;;;5052507;28;20025;-68
2023/12/19 05:18:04;;;;;;;49.85;37.88;;;1.90;99.90;;;;;;5052850;28;20017;-66
2023/12/19 05:20:30;;;;;;;56.75;40.97;;;2.00;99.90;;;;;;5053179;28;20024;-65
2023/12/19 05:22:55;;;;;;;63.58;44.25;;;2.00;99.90;;;;;;5052521;28;20052;-67
2023/12/19 05:25:21;;;;;;;47.40;35.25;;;2.00;99.90;;;;;;5052987;28;20025;-61
2023/12/19 05:27:47;;;;;;;77.88;54.65;;;2.00;99.90;;;;;;5053216;28;20013;-65
2023/12/19 05:30:13;;;;;;;81.10;56.05;;;1.90;99.90;;;;;;5052012;28;20040;-64
2023/12/19 05:32:39;;;;;;;53.83;40.42;;;1.90;99.90;;;;;;5052961;28;20044;-65
2023/12/19 05:35:05;;;;;;;69.32;50.70;;;1.80;99.90;;;;;;5053161;28;20095;-62
2023/12/19 05:37:31;;;;;;;90.40;58.05;;;1.80;99.90;;;;;;5052160;28;20021;-67
2023/12/19 05:39:57;;;;;;;116.32;74.10;;;1.80;99.90;;;;;;5052913;28;20552;-60
2023/12/19 05:42:23;;;;;;;83.22;56.28;;;1.80;99.90;;;;;;5053033;28;20029;-69
2023/12/19 05:44:49;;;;;;;79.35;53.97;;;1.80;99.90;;;;;;5051886;28;20032;-65
2023/12/19 05:47:15;;;;;;;146.27;90.85;;;1.80;99.90;;;;;;5052868;28;20025;-67
2023/12/19 05:49:40;;;;;;;169.85;112.70;;;1.80;99.90;;;;;;5052273;28;20037;-62
2023/12/19 05:52:06;;;;;;;143.70;90.22;;;1.70;99.90;;;;;;5052549;28;20044;-68
2023/12/19 05:54:33;;;;;;;114.45;78.10;;;1.70;99.90;;;;;;5052992;28;20113;-67
2023/12/19 05:56:59;;;;;;;107.30;71.70;;;1.70;99.90;;;;;;5051733;28;20048;-65
2023/12/19 05:59:24;;;;;;;97.88;64.25;;;1.70;99.90;;;;;;5052723;28;20026;-65
2023/12/19 06:01:50;;;;;;;100.15;64.95;;;1.80;99.90;;;;;;5052772;28;20544;-62
2023/12/19 06:04:16;;;;;;;128.13;84.78;;;1.80;99.90;;;;;;5051788;28;20014;-64
2023/12/19 06:06:44;;;;;;;99.60;64.70;;;1.80;99.90;;;;;;5052697;28;20471;-65
2023/12/19 06:09:12;;;;;;;90.50;60.28;;;1.70;99.90;;;;;;5054523;28;20041;-65
2023/12/19 06:11:39;;;;;;;80.72;55.55;;;1.80;99.90;;;;;;5055729;28;20044;-68
2023/12/19 06:14:05;;;;;;;100.18;63.38;;;1.80;99.90;;;;;;5056323;28;20021;-67
2023/12/19 06:16:32;;;;;;;117.95;77.15;;;1.80;99.90;;;;;;5056417;28;20021;-63
2023/12/19 06:18:58;;;;;;;85.75;59.42;;;1.70;99.90;;;;;;5054526;28;20029;-66
2023/12/19 06:21:24;;;;;;;75.50;53.10;;;1.60;99.90;;;;;;5056431;28;20044;-65
2023/12/19 06:23:49;;;;;;;90.72;59.75;;;1.70;99.90;;;;;;5055267;28;20155;-68
2023/12/19 06:26:15;;;;;;;74.18;52.08;;;1.70;99.90;;;;;;5044057;28;20022;-64
2023/12/19 06:28:41;;;;;;;83.75;54.33;;;1.80;99.90;;;;;;5035237;28;20105;-62
2023/12/19 06:31:07;;;;;;;98.65;66.65;;;1.80;99.90;;;;;;5039995;28;20033;-66
2023/12/19 06:33:33;;;;;;;74.20;51.38;;;1.80;99.90;;;;;;5055284;28;20071;-64
2023/12/19 06:35:58;;;;;;;88.18;55.72;;;1.80;99.90;;;;;;5055988;28;20029;-64
2023/12/19 06:38:24;;;;;;;102.40;66.30;;;1.80;99.90;;;;;;5055375;28;20033;-64
2023/12/19 06:40:50;;;;;;;78.50;54.92;;;1.80;99.90;;;;;;5055589;28;20021;-69
2023/12/19 06:43:17;;;;;;;72.13;47.42;;;1.80;99.90;;;;;;5061108;28;20395;-64
2023/12/19 06:45:44;;;;;;;72.35;48.45;;;1.80;99.90;;;;;;5054013;28;20029;-69
2023/12/19 06:48:10;;;;;;;68.40;48.15;;;1.80;99.90;;;;;;5048598;28;20490;-67
2023/12/19 06:50:39;;;;;;;67.25;47.28;;;1.90;99.90;;;;;;5044844;28;20094;-61
2023/12/19 06:53:05;;;;;;;64.30;44.88;;;1.90;99.90;;;;;;5055153;28;20021;-61
2023/12/19 06:55:31;;;;;;;70.05;46.95;;;2.00;99.90;;;;;;5052069;28;20024;-65
2023/12/19 06:57:57;;;;;;;61.70;45.03;;;2.00;99.90;;;;;;5042595;28;20103;-66
2023/12/19 07:00:22;;;;;;;71.60;47.25;;;2.00;99.90;;;;;;5034335;28;20099;-62
2023/12/19 07:02:48;;;;;;;72.30;50.63;;;2.10;99.90;;;;;;5033435;28;20021;-64
2023/12/19 07:05:14;;;;;;;68.05;47.85;;;2.10;99.90;;;;;;5032571;28;20376;-65
2023/12/19 07:07:55;;;;;;;106.65;68.15;;;2.00;99.90;;;;;;5033103;28;20074;-67
2023/12/19 07:10:21;;;;;;;143.48;94.32;;;2.00;99.90;;;;;;5039747;28;20459;-63
2023/12/19 07:12:47;;;;;;;136.55;91.68;;;2.00;99.90;;;;;;5052321;28;20108;-72
2023/12/19 07:15:12;;;;;;;148.93;101.15;;;1.90;99.90;;;;;;5052749;28;20031;-68
2023/12/19 07:17:38;;;;;;;154.77;105.60;;;1.90;99.90;;;;;;5050227;28;20028;-69
2023/12/19 07:20:04;;;;;;;148.90;102.13;;;1.90;99.90;;;;;;5050697;28;20161;-64
2023/12/19 07:22:30;;;;;;;109.80;78.25;;;1.90;99.90;;;;;;5053755;28;20036;-73
2023/12/19 07:24:56;;;;;;;128.40;88.28;;;1.90;99.90;;;;;;5046859;28;20033;-63
2023/12/19 07:27:22;;;;;;;133.48;94.95;;;2.00;99.90;;;;;;5050539;28;20032;-65
2023/12/19 07:29:48;;;;;;;108.38;77.80;;;2.10;99.90;;;;;;5042864;28;20454;-64
2023/12/19 07:32:14;;;;;;;110.15;79.28;;;2.10;99.90;;;;;;5031776;28;20380;-65
2023/12/19 07:34:49;;;;;;;89.75;64.93;;;2.20;99.90;;;;;;5034186;28;20057;-63
2023/12/19 07:37:23;;;;;;;118.38;79.15;;;2.30;99.90;;;;;;5038583;28;20063;-64
2023/12/19 07:39:49;;;;;;;187.23;127.68;;;2.30;99.90;;;;;;5047010;28;20021;-66
2023/12/19 07:42:15;;;;;;;159.63;113.65;;;2.40;99.90;;;;;;5040481;28;20547;-65
2023/12/19 07:44:41;;;;;;;200.27;142.65;;;2.70;99.90;;;;;;5033573;28;20053;-63
2023/12/19 07:47:07;;;;;;;246.90;170.95;;;3.10;99.90;;;;;;5035137;28;20040;-64
2023/12/19 07:49:33;;;;;;;231.20;161.18;;;3.30;99.90;;;;;;5035525;28;20029;-66
2023/12/19 07:51:58;;;;;;;267.45;187.73;;;3.70;99.90;;;;;;5040822;28;20025;-61
2023/12/19 07:54:26;;;;;;;282.48;203.25;;;4.40;99.90;;;;;;5033867;28;20060;-63
2023/12/19 07:56:52;;;;;;;318.65;231.98;;;6.30;91.90;;;;;;5044458;28;20119;-63
2023/12/19 07:59:18;;;;;;;333.25;240.82;;;7.60;74.70;;;;;;5048549;28;20082;-63
2023/12/19 08:01:48;;;;;;;289.80;216.23;;;8.80;64.40;;;;;;5048771;28;20104;-71
2023/12/19 08:04:14;;;;;;;337.27;249.55;;;9.90;60.50;;;;;;5047335;28;20055;-63
2023/12/19 08:06:41;;;;;;;340.75;271.50;;;11.00;53.10;;;;;;5048511;28;20059;-70
2023/12/19 08:09:10;;;;;;;254.20;204.07;;;11.10;51.40;;;;;;5048077;28;20032;-64
2023/12/19 08:11:36;;;;;;;233.13;185.00;;;11.60;51.80;;;;;;5045724;28;20087;-66
2023/12/19 08:14:02;;;;;;;216.50;173.32;;;12.60;51.10;;;;;;5050321;28;20360;-68
2023/12/19 08:16:28;;;;;;;187.65;154.25;;;13.80;47.70;;;;;;5042927;28;20028;-64
2023/12/19 08:18:53;;;;;;;171.18;139.40;;;14.30;45.50;;;;;;5051270;28;20036;-69
2023/12/19 08:21:19;;;;;;;148.93;125.93;;;14.90;44.90;;;;;;5040179;28;20044;-70
2023/12/19 08:23:47;;;;;;;146.18;120.07;;;15.50;43.40;;;;;;5048760;28;20031;-65
2023/12/19 08:26:12;;;;;;;135.77;109.50;;;15.40;41.10;;;;;;5048072;28;20028;-64
2023/12/19 08:28:38;;;;;;;119.90;100.97;;;15.30;41.80;;;;;;5045172;28;20029;-71
2023/12/19 08:31:04;;;;;;;125.30;102.60;;;15.60;42.80;;;;;;5042835;28;20400;-67
2023/12/19 08:33:33;;;;;;;105.13;89.93;;;16.20;41.80;;;;;;5036230;28;20030;-69
2023/12/19 08:35:58;;;;;;;109.57;92.57;;;16.50;40.10;;;;;;5036630;28;20123;-71
2023/12/19 08:38:40;;;;;;;101.13;89.07;;;16.90;40.10;;;;;;5028023;28;20435;-60
2023/12/19 08:41:15;;;;;;;106.20;91.18;;;17.20;39.00;;;;;;5037458;28;20037;-63
2023/12/19 08:43:41;;;;;;;105.88;91.72;;;17.40;39.30;;;;;;5029895;28;20029;-66
2023/12/19 08:46:08;;;;;;;99.80;88.82;;;17.40;38.90;;;;;;5030750;28;20047;-64
2023/12/19 08:48:34;;;;;;;88.68;78.30;;;17.20;39.40;;;;;;5037026;28;20025;-69
2023/12/19 08:51:02;;;;;;;88.55;78.85;;;16.80;40.20;;;;;;5035746;28;20122;-65
2023/12/19 08:53:29;;;;;;;102.57;91.22;;;16.60;40.20;;;;;;5035824;28;20025;-65
2023/12/19 08:59:18;;;;;;;105.00;93.45;;;15.80;40.80;;;;;;5037653;28;20056;-72
2023/12/19 09:01:48;;;;;;;97.38;86.70;;;15.30;43.40;;;;;;5033162;28;20037;-71
2023/12/19 09:04:14;;;;;;;87.25;76.60;;;15.10;43.60;;;;;;5035509;28;20367;-71
2023/12/19 09:06:40;;;;;;;136.07;117.45;;;14.90;43.60;;;;;;5026468;28;20040;-71
2023/12/19 09:09:11;;;;;;;142.65;124.18;;;14.60;43.40;;;;;;5037929;28;20475;-68
2023/12/19 09:11:37;;;;;;;138.55;123.47;;;14.00;45.50;;;;;;5027643;28;20034;-68
2023/12/19 09:14:05;;;;;;;128.23;114.22;;;13.80;46.50;;;;;;5035464;28;20087;-67
2023/12/19 09:16:32;;;;;;;123.80;110.40;;;13.80;46.30;;;;;;5034316;28;20490;-71
2023/12/19 09:19:07;;;;;;;117.47;104.78;;;14.00;46.00;;;;;;5033447;28;20025;-66
2023/12/19 09:21:33;;;;;;;112.55;100.22;;;14.30;45.60;;;;;;5036670;28;20128;-68
2023/12/19 09:23:59;;;;;;;99.47;88.97;;;14.40;45.50;;;;;;5034675;28;20100;-66
2023/12/19 09:26:25;;;;;;;89.03;79.65;;;14.60;45.90;;;;;;5038802;28;20030;-65
2023/12/19 09:29:12;;;;;;;80.50;72.07;;;14.80;45.70;;;;;;5040304;28;20579;-64
2023/12/19 09:31:38;;;;;;;76.45;68.28;;;14.90;44.70;;;;;;5038332;28;20041;-69
2023/12/19 09:34:04;;;;;;;75.05;67.07;;;15.10;45.60;;;;;;5035229;28;20022;-71
2023/12/19 09:36:30;;;;;;;75.03;67.00;;;15.20;44.00;;;;;;5030685;28;20040;-62
2023/12/19 09:39:42;;;;;;;68.38;61.15;;;15.30;44.30;;;;;;5028498;28;20034;-65
2023/12/19 09:42:19;;;;;;;62.45;55.97;;;15.30;44.70;;;;;;5027176;28;20064;-62
2023/12/19 09:44:46;;;;;;;60.13;53.90;;;15.40;44.00;;;;;;5035093;28;20021;-64
2023/12/19 09:47:24;;;;;;;60.72;54.50;;;15.50;43.90;;;;;;5045212;28;20033;-63
2023/12/19 09:49:57;;;;;;;61.92;55.53;;;15.70;43.20;;;;;;5031865;28;20033;-66
2023/12/19 09:52:24;;;;;;;;;;;15.70;44.20;;;;;;5037448;28;20037;-67
2023/12/19 09:54:50;;;;;;;60.22;53.80;;;15.40;43.70;;;;;;5035826;28;19916;-65
2023/12/19 09:57:20;;;;;;;61.25;54.78;;;15.50;44.10;;;;;;5050002;28;20025;-72
2023/12/19 09:59:47;;;;;;;53.72;48.40;;;15.70;44.50;;;;;;5042715;28;20106;-72
2023/12/19 10:02:14;;;;;;;60.30;53.83;;;15.90;44.20;;;;;;5041231;28;20348;-69
2023/12/19 10:04:41;;;;;;;64.95;58.25;;;16.00;43.10;;;;;;5040484;28;20040;-65
2023/12/19 10:07:07;;;;;;;69.38;62.13;;;16.20;42.80;;;;;;5040043;28;20021;-70
2023/12/19 10:09:33;;;;;;;65.80;59.30;;;16.30;44.10;;;;;;5044277;28;20398;-73
2023/12/19 10:12:12;;;;;;;61.88;55.67;;;16.20;43.50;;;;;;5052108;28;20033;-76
2023/12/19 10:14:38;;;;;;;63.00;56.60;;;16.40;43.10;;;;;;5047206;28;20033;-64
2023/12/19 10:17:08;;;;;;;60.67;54.67;;;16.60;42.40;;;;;;5034945;28;20021;-69
2023/12/19 10:19:34;;;;;;;60.53;54.45;;;16.80;41.70;;;;;;5033441;28;20058;-64
2023/12/19 10:22:09;;;;;;;57.60;51.78;;;16.90;41.70;;;;;;5031435;28;20483;-69
2023/12/19 10:24:36;;;;;;;52.70;47.50;;;16.90;41.90;;;;;;5039134;28;20036;-66
2023/12/19 10:27:06;;;;;;;49.80;44.70;;;16.90;42.10;;;;;;5039912;28;20383;-70
2023/12/19 10:29:38;;;;;;;45.92;41.42;;;17.00;41.60;;;;;;5043038;28;20506;-65
2023/12/19 10:32:18;;;;;;;49.83;44.85;;;17.10;42.20;;;;;;5043650;28;21710;-67
2023/12/19 10:35:03;;;;;;;55.65;50.03;;;17.10;42.40;;;;;;5029807;28;20028;-66
2023/12/19 10:37:29;;;;;;;58.03;51.83;;;17.00;41.50;;;;;;5036670;28;20624;-68
2023/12/19 10:40:25;;;;;;;52.88;47.47;;;16.90;41.30;;;;;;5030653;28;20049;-66
2023/12/19 10:42:55;;;;;;;46.38;41.85;;;16.70;40.80;;;;;;5035169;28;20045;-64
2023/12/19 10:45:23;;;;;;;42.55;38.40;;;16.60;42.10;;;;;;5042978;28;20462;-66
2023/12/19 10:47:48;;;;;;;37.58;34.08;;;16.60;42.10;;;;;;5045318;28;20029;-61
2023/12/19 10:50:15;;;;;;;36.85;33.15;;;16.80;41.90;;;;;;5041634;28;20043;-67
2023/12/19 10:52:44;;;;;;;36.17;32.58;;;16.90;42.00;;;;;;5048481;28;20025;-63
2023/12/19 10:55:17;;;;;;;37.60;33.97;;;17.10;41.70;;;;;;5037141;28;20032;-64
2023/12/19 10:57:47;;;;;;;35.53;32.00;;;17.40;42.70;;;;;;5036589;28;20045;-68
2023/12/19 11:00:17;;;;;;;31.90;28.90;;;17.50;41.70;;;;;;5041021;28;20090;-64
2023/12/19 11:03:18;;;;;;;29.67;26.67;;;17.70;40.50;;;;;;5034961;28;20132;-61
2023/12/19 11:05:46;;;;;;;29.85;27.05;;;17.90;40.70;;;;;;5038549;28;20060;-70
2023/12/19 11:08:17;;;;;;;32.33;29.23;;;18.00;40.90;;;;;;5039709;28;20014;-67
2023/12/19 11:10:53;;;;;;;41.92;37.83;;;17.90;40.70;;;;;;5041724;28;20028;-65
2023/12/19 11:13:20;;;;;;;45.33;40.85;;;17.90;41.00;;;;;;5044059;28;20048;-65
2023/12/19 11:15:57;;;;;;;57.33;51.63;;;17.60;42.60;;;;;;5040041;28;20030;-70
2023/12/19 11:18:43;;;;;;;71.15;63.83;;;17.30;42.00;;;;;;5041622;28;20040;-66
2023/12/19 11:21:21;;;;;;;68.20;61.53;;;16.80;43.80;;;;;;5043472;28;20020;-64
2023/12/19 11:23:58;;;;;;;61.88;55.97;;;16.30;44.80;;;;;;5047524;28;20029;-69
2023/12/19 11:26:31;;;;;;;55.63;50.22;;;15.90;46.60;;;;;;5040216;28;20099;-62
2023/12/19 11:28:57;;;;;;;63.83;57.65;;;15.90;47.00;;;;;;5037473;28;20116;-65
2023/12/19 11:31:29;;;;;;;60.70;54.92;;;16.00;46.30;;;;;;5035976;28;20051;-63
2023/12/19 11:33:58;;;;;;;69.07;62.13;;;16.00;47.10;;;;;;5039418;28;20080;-66
2023/12/19 11:36:24;;;;;;;66.93;60.22;;;15.80;47.70;;;;;;5032737;28;20083;-63
2023/12/19 11:38:50;;;;;;;80.38;72.57;;;15.80;49.10;;;;;;5041345;28;20033;-65
2023/12/19 11:41:37;;;;;;;86.30;77.75;;;16.00;49.10;;;;;;5040214;28;20009;-63
2023/12/19 11:44:03;;;;;;;105.07;93.90;;;15.90;47.30;;;;;;5033072;28;20498;-62
2023/12/19 11:46:29;;;;;;;98.05;87.80;;;15.60;48.30;;;;;;5031159;28;20037;-65
2023/12/19 11:48:55;;;;;;;78.00;70.00;;;15.50;48.60;;;;;;5043121;28;20094;-65
2023/12/19 11:51:54;;;;;;;87.28;78.35;;;15.50;48.20;;;;;;5051595;28;20044;-64
2023/12/19 11:54:20;;;;;;;99.38;89.53;;;15.40;49.00;;;;;;5042134;28;20036;-62
2023/12/19 11:56:58;;;;;;;78.82;71.45;;;15.20;49.70;;;;;;5032248;28;20512;-69
2023/12/19 11:59:54;;;;;;;61.53;55.50;;;15.10;49.60;;;;;;5038084;28;20068;-66
2023/12/19 12:02:35;;;;;;;58.75;53.03;;;15.00;49.80;;;;;;5043869;28;20033;-63
2023/12/19 12:05:05;;;;;;;47.83;43.03;;;14.90;51.10;;;;;;5041819;28;20029;-63
2023/12/19 12:07:31;;;;;;;47.42;42.78;;;14.80;51.30;;;;;;5032921;28;20022;-64
2023/12/19 12:10:04;;;;;;;56.50;50.90;;;14.80;51.90;;;;;;5042238;28;20039;-66
2023/12/19 12:12:33;;;;;;;70.68;59.88;;;15.00;51.20;;;;;;5038602;28;20033;-61
2023/12/19 12:15:11;;;;;;;46.08;41.28;;;14.80;51.80;;;;;;5035820;28;20419;-62
2023/12/19 12:17:37;;;;;;;45.22;40.63;;;14.60;51.80;;;;;;5039038;28;20696;-62
2023/12/19 12:20:06;;;;;;;43.58;39.35;;;14.60;52.60;;;;;;5041492;28;20108;-64
2023/12/19 12:22:33;;;;;;;42.25;37.97;;;14.50;52.30;;;;;;5048064;28;20017;-62
2023/12/19 12:25:13;;;;;;;39.35;35.42;;;14.50;53.00;;;;;;5034265;28;20060;-67
2023/12/19 12:27:39;;;;;;;38.35;34.65;;;14.40;53.60;;;;;;5042294;28;20025;-65
2023/12/19 12:30:11;;;;;;;36.25;32.78;;;14.30;54.80;;;;;;5029017;28;20021;-65
2023/12/19 12:32:39;;;;;;;38.13;34.42;;;14.20;56.10;;;;;;5039632;28;20060;-65
2023/12/19 12:35:26;;;;;;;48.72;44.22;;;14.10;56.30;;;;;;5041074;28;20021;-64